Time;durP1;ratioP1;P1;durP2;ratioP2;P2;SDS_P1;SDS_P2;PMS_P1;PMS_P2;Temp;Humidity;BMP_temperature;BMP_pressure;BME280_temperature;BME280_humidity;BME280_pressure;Samples;Min_cycle;Max_cycle;Signal;HPM_P1;HPM_P2
2022/12/30 00:00:39;;;;;;;3.70;0.88;;;;;;;6.03;100.00;98897.47;5107655;28;20052;-77
2022/12/30 00:03:06;;;;;;;4.47;0.82;;;;;;;6.00;100.00;98889.72;5107304;28;20265;-77
2022/12/30 00:05:32;;;;;;;1.35;0.80;;;;;;;5.92;100.00;98898.59;5107276;28;20495;-77
2022/12/30 00:08:00;;;;;;;1.30;0.50;;;;;;;5.74;100.00;98878.94;5104201;28;20048;-77
2022/12/30 00:10:26;;;;;;;0.68;0.50;;;;;;;5.64;100.00;98871.78;5111114;28;20414;-77
2022/12/30 00:35:15;;;;;;;2.20;0.60;;;;;;;5.66;100.00;98920.19;5106990;27;20054;-77
2022/12/30 00:37:42;;;;;;;1.20;0.63;;;;;;;5.61;100.00;98909.03;5097472;27;20407;-77
2022/12/30 00:40:11;;;;;;;0.82;0.45;;;;;;;5.56;100.00;98882.56;5105565;28;20619;-77
2022/12/30 00:45:24;;;;;;;1.65;0.60;;;;;;;5.73;100.00;98912.31;5111521;27;20054;-77
2022/12/30 00:47:51;;;;;;;4.10;0.80;;;;;;;5.69;100.00;98911.81;5101883;28;20052;-77
2022/12/30 00:58:31;;;;;;;2.53;0.50;;;;;;;5.48;100.00;98937.28;5096904;28;20097;-77
2022/12/30 01:00:58;;;;;;;0.65;0.40;;;;;;;5.46;100.00;98935.75;5112037;27;20056;-77
2022/12/30 01:03:24;;;;;;;1.63;0.63;;;;;;;5.25;100.00;98903.75;5108192;27;20048;-77
2022/12/30 01:05:51;;;;;;;4.03;0.88;;;;;;;5.36;100.00;98938.53;5104607;27;20077;-77
2022/12/30 01:08:17;;;;;;;1.48;0.55;;;;;;;5.11;100.00;98914.06;5110591;27;20067;-77
2022/12/30 01:10:44;;;;;;;2.13;0.93;;;;;;;5.13;100.00;98927.41;5108614;27;20055;-77
2022/12/30 01:13:12;;;;;;;1.55;0.80;;;;;;;5.22;100.00;98958.78;5112077;27;20055;-77
2022/12/30 01:15:38;;;;;;;0.45;0.40;;;;;;;5.11;100.00;98937.50;5108570;28;20126;-77
2022/12/30 01:18:05;;;;;;;2.75;0.52;;;;;;;5.04;100.00;98939.94;5098526;28;20052;-77
2022/12/30 01:20:32;;;;;;;0.52;0.52;;;;;;;5.18;100.00;98957.44;5106278;27;20118;-77
2022/12/30 01:22:58;;;;;;;1.13;0.60;;;;;;;5.20;100.00;98962.66;5106361;27;20124;-77
2022/12/30 01:25:25;;;;;;;3.03;1.10;;;;;;;5.29;100.00;98959.03;5099713;28;20276;-77
2022/12/30 01:27:51;;;;;;;3.35;0.80;;;;;;;5.09;100.00;98928.72;5092766;28;20047;-77
2022/12/30 01:30:19;;;;;;;3.40;1.00;;;;;;;5.29;100.00;98965.25;5099499;27;20048;-77
2022/12/30 01:32:46;;;;;;;1.15;0.75;;;;;;;5.28;100.00;98965.41;5095752;28;20409;-77
2022/12/30 01:35:12;;;;;;;1.13;0.55;;;;;;;5.29;100.00;98954.47;5095406;28;20063;-77
2022/12/30 01:37:39;;;;;;;3.25;0.73;;;;;;;5.40;100.00;98977.66;5107255;28;20056;-77
2022/12/30 01:40:07;;;;;;;3.63;0.90;;;;;;;5.29;100.00;98967.97;5102302;27;20482;-77
2022/12/30 01:42:38;;;;;;;3.05;0.90;;;;;;;5.40;100.00;98963.31;5110675;28;20051;-77
2022/12/30 01:45:12;;;;;;;3.08;0.63;;;;;;;5.50;100.00;98983.78;5107485;28;20054;-77
2022/12/30 01:47:44;;;;;;;5.60;0.70;;;;;;;5.55;100.00;98985.19;5110189;28;20048;-77
2022/12/30 01:50:28;;;;;;;4.05;1.17;;;;;;;5.41;100.00;98967.72;5107071;28;20051;-77
2022/12/30 01:53:00;;;;;;;0.77;0.77;;;;;;;5.32;100.00;98951.47;5109049;28;20043;-77
2022/12/30 01:55:30;;;;;;;0.85;0.55;;;;;;;5.43;100.00;98977.31;5104462;27;20075;-76
2022/12/30 01:57:59;;;;;;;1.60;0.70;;;;;;;5.36;100.00;98992.47;5108764;27;20044;-77
2022/12/30 02:00:25;;;;;;;1.50;0.60;;;;;;;5.27;100.00;98988.84;5106371;28;20048;-77
2022/12/30 02:02:55;;;;;;;1.25;0.57;;;;;;;5.16;100.00;98969.38;5110071;28;20526;-77
2022/12/30 02:05:25;;;;;;;1.38;0.60;;;;;;;5.14;100.00;98981.13;5102882;28;20498;-77
2022/12/30 02:08:00;;;;;;;1.08;0.70;;;;;;;5.10;100.00;98982.47;5104926;28;20051;-77
2022/12/30 02:10:26;;;;;;;0.50;0.45;;;;;;;5.00;100.00;98970.91;5115165;27;20059;-77
2022/12/30 02:12:53;;;;;;;2.08;0.77;;;;;;;4.95;100.00;98974.06;5107316;28;20122;-77
2022/12/30 02:15:22;;;;;;;1.45;1.17;;;;;;;4.81;100.00;98958.44;5106164;28;20051;-77
2022/12/30 02:18:02;;;;;;;2.70;1.13;;;;;;;4.93;100.00;98983.31;5109718;27;20050;-77
2022/12/30 02:21:02;;;;;;;1.08;0.60;;;;;;;4.98;100.00;98999.84;5108586;28;20283;-77
2022/12/30 02:24:07;;;;;;;1.65;0.70;;;;;;;4.83;100.00;98977.97;5102405;28;20075;-77
2022/12/30 02:26:52;;;;;;;4.18;0.98;;;;;;;4.89;100.00;99008.84;5106320;27;20047;-77
2022/12/30 02:29:42;;;;;;;0.98;0.57;;;;;;;4.76;100.00;99012.75;5110499;27;20039;-77
2022/12/30 02:32:16;;;;;;;0.52;0.40;;;;;;;4.74;100.00;99014.75;5074242;28;20043;-77
2022/12/30 02:34:52;;;;;;;1.15;0.40;;;;;;;4.42;100.00;99004.44;5109032;28;20487;-77
2022/12/30 02:37:29;;;;;;;0.77;0.50;;;;;;;4.51;100.00;99019.69;5106847;28;20055;-77
2022/12/30 02:40:04;;;;;;;1.17;0.60;;;;;;;4.49;100.00;99018.16;5113359;27;20154;-77
2022/12/30 02:45:28;;;;;;;1.00;0.70;;;;;;;4.34;100.00;99042.03;5102391;28;20055;-77
2022/12/30 02:48:01;;;;;;;2.03;1.05;;;;;;;4.31;100.00;99035.09;5098903;28;20054;-77
2022/12/30 02:53:17;;;;;;;1.80;0.50;;;;;;;4.11;100.00;99042.41;5097702;27;20504;-77
2022/12/30 02:55:43;;;;;;;0.65;0.40;;;;;;;3.93;100.00;99028.00;5102472;28;20044;-77
2022/12/30 02:58:10;;;;;;;5.90;0.80;;;;;;;3.72;100.00;99010.22;5096829;28;20048;-77
2022/12/30 03:04:00;;;;;;;0.68;0.68;;;;;;;3.81;100.00;99027.31;5103310;28;20050;-77
2022/12/30 03:06:51;;;;;;;1.65;0.80;;;;;;;3.85;100.00;99039.47;5106826;28;20123;-77
2022/12/30 03:09:27;;;;;;;0.63;0.60;;;;;;;3.72;100.00;99029.06;5101178;28;20059;-77
2022/12/30 03:12:02;;;;;;;1.33;0.82;;;;;;;3.59;100.00;99015.91;5107772;28;20039;-77
2022/12/30 03:14:35;;;;;;;0.90;0.60;;;;;;;3.57;100.00;99019.72;5102552;28;20039;-77
2022/12/30 03:17:07;;;;;;;4.95;0.77;;;;;;;3.55;100.00;99011.78;5102835;28;20073;-77
2022/12/30 03:19:39;;;;;;;1.35;0.70;;;;;;;3.69;100.00;99040.09;5099985;28;20058;-77
2022/12/30 03:27:02;;;;;;;1.50;0.68;;;;;;;3.51;100.00;99024.69;5115254;28;20051;-77
2022/12/30 03:27:44;;;;;;;0.82;0.80;;;;;;;3.57;100.00;99020.59;5094972;28;19927;-76
2022/12/30 03:30:11;;;;;;;3.65;0.90;;;;;;;3.64;100.00;99034.28;5097222;28;20055;-77
2022/12/30 03:32:38;;;;;;;3.10;0.90;;;;;;;3.56;100.00;99029.63;5103589;28;20066;-77
2022/12/30 03:35:07;;;;;;;1.75;0.98;;;;;;;3.41;100.00;99023.84;5093438;28;20040;-77
2022/12/30 03:37:37;;;;;;;1.70;0.98;;;;;;;3.28;100.00;99034.03;5095836;28;20139;-79
2022/12/30 03:40:08;;;;;;;1.17;0.90;;;;;;;3.13;100.00;99017.47;5101338;28;20040;-77
2022/12/30 03:42:34;;;;;;;1.42;0.80;;;;;;;3.00;100.00;99007.88;5104361;28;20048;-77
2022/12/30 03:45:02;;;;;;;3.28;1.02;;;;;;;3.06;100.00;99027.13;5108780;28;20079;-77
2022/12/30 03:47:29;;;;;;;1.20;0.90;;;;;;;2.94;100.00;99029.91;5109578;28;20070;-77
2022/12/30 03:49:56;;;;;;;3.42;1.00;;;;;;;3.04;100.00;99039.81;5105529;28;20040;-79
2022/12/30 03:52:24;;;;;;;0.80;0.75;;;;;;;2.91;100.00;99008.72;5108961;28;20056;-78
2022/12/30 03:54:51;;;;;;;2.05;0.70;;;;;;;2.98;100.00;99009.00;5112165;28;20055;-78
2022/12/30 03:57:19;;;;;;;0.82;0.80;;;;;;;3.20;100.00;99021.31;5111626;28;20062;-78
2022/12/30 03:59:45;;;;;;;4.35;0.88;;;;;;;3.07;100.00;99010.00;5110349;28;20328;-78
2022/12/30 04:02:12;;;;;;;0.98;0.88;;;;;;;3.06;100.00;99027.13;5108144;28;20047;-79
2022/12/30 04:04:39;;;;;;;4.28;0.98;;;;;;;2.78;100.00;99000.91;5108351;28;20050;-79
2022/12/30 04:07:05;;;;;;;1.05;0.95;;;;;;;2.67;100.00;99002.91;5112443;28;20047;-79
2022/12/30 04:09:33;;;;;;;1.02;0.70;;;;;;;2.84;100.00;99026.34;5107008;28;20047;-78
2022/12/30 04:12:00;;;;;;;1.05;0.73;;;;;;;2.92;100.00;99034.59;5113865;28;20082;-78
2022/12/30 04:14:26;;;;;;;1.25;0.68;;;;;;;2.94;100.00;99024.53;5113880;28;20069;-78
2022/12/30 04:16:53;;;;;;;1.38;0.80;;;;;;;2.95;100.00;99026.25;5113565;28;20094;-78
2022/12/30 04:19:19;;;;;;;4.07;1.10;;;;;;;2.88;100.00;99043.06;5107060;28;20043;-79
2022/12/30 04:21:46;;;;;;;0.88;0.80;;;;;;;2.53;100.00;98996.06;5113533;28;20050;-79
2022/12/30 04:24:12;;;;;;;1.60;0.75;;;;;;;2.67;100.00;99017.16;5113523;28;20048;-79
2022/12/30 04:26:40;;;;;;;0.70;0.70;;;;;;;2.61;100.00;98989.03;5104938;28;20040;-78
2022/12/30 04:29:07;;;;;;;1.92;0.90;;;;;;;2.69;100.00;98999.06;5113871;28;20059;-79
2022/12/30 04:31:34;;;;;;;3.20;0.98;;;;;;;2.70;100.00;99021.41;5113542;28;20291;-79
2022/12/30 04:34:00;;;;;;;1.15;0.73;;;;;;;2.72;100.00;99022.94;5110529;28;20051;-79
2022/12/30 04:36:28;;;;;;;2.70;1.02;;;;;;;2.61;100.00;99002.44;5113758;28;20101;-79
2022/12/30 04:38:55;;;;;;;1.77;0.80;;;;;;;2.68;100.00;99026.03;5113396;28;20056;-78
2022/12/30 04:41:22;;;;;;;1.25;0.88;;;;;;;2.58;100.00;99008.09;5113654;28;20070;-79
2022/12/30 04:43:50;;;;;;;1.17;0.93;;;;;;;2.72;100.00;99022.94;5111275;27;20051;-79
2022/12/30 04:46:16;;;;;;;0.82;0.70;;;;;;;2.64;100.00;99025.47;5113119;28;20286;-79
2022/12/30 04:48:43;;;;;;;2.15;0.90;;;;;;;2.67;100.00;99035.94;5111369;28;20130;-78
2022/12/30 04:51:09;;;;;;;0.98;0.88;;;;;;;2.73;100.00;99029.19;5113503;28;20130;-79
2022/12/30 04:53:36;;;;;;;3.15;0.73;;;;;;;2.64;100.00;99009.38;5112902;28;20054;-78
2022/12/30 04:56:02;;;;;;;0.77;0.77;;;;;;;2.86;100.00;99023.53;5111316;28;20506;-79
2022/12/30 04:58:29;;;;;;;1.52;1.00;;;;;;;2.88;100.00;99017.03;5113036;28;20135;-79
2022/12/30 05:00:57;;;;;;;0.82;0.70;;;;;;;2.78;100.00;99008.97;5103713;28;20483;-78
2022/12/30 05:03:24;;;;;;;3.40;1.02;;;;;;;2.86;100.00;99045.03;5107739;28;20068;-79
2022/12/30 05:05:50;;;;;;;1.02;0.82;;;;;;;2.68;100.00;99034.09;5113183;28;20056;-79
2022/12/30 05:08:17;;;;;;;6.10;1.00;;;;;;;2.77;100.00;99027.91;5113031;28;20052;-79
2022/12/30 05:10:43;;;;;;;1.30;0.85;;;;;;;2.82;100.00;99015.75;5112973;28;20491;-79
2022/12/30 05:13:10;;;;;;;3.55;0.90;;;;;;;2.96;100.00;99029.78;5112262;28;20047;-79
2022/12/30 05:15:36;;;;;;;0.88;0.63;;;;;;;2.75;100.00;99019.97;5103472;28;20043;-79
2022/12/30 05:18:04;;;;;;;0.80;0.80;;;;;;;2.59;100.00;98995.50;5110933;28;20509;-79
2022/12/30 05:20:31;;;;;;;0.95;0.75;;;;;;;2.69;100.00;99020.53;5112726;28;20495;-79
2022/12/30 05:22:58;;;;;;;1.77;0.90;;;;;;;2.69;100.00;99023.22;5111887;28;20066;-79
2022/12/30 05:28:08;;;;;;;1.02;0.80;;;;;;;2.54;100.00;99016.56;5112753;28;20062;-79
2022/12/30 05:30:35;;;;;;;0.95;0.70;;;;;;;2.38;100.00;99004.50;5102306;28;20050;-78
2022/12/30 05:33:01;;;;;;;3.33;1.13;;;;;;;2.54;100.00;99011.19;5098063;28;20483;-77
2022/12/30 05:35:29;;;;;;;0.75;0.70;;;;;;;2.48;100.00;98983.94;5113253;28;20051;-78
2022/12/30 05:37:56;;;;;;;1.20;0.85;;;;;;;2.62;100.00;99009.53;5106911;28;20043;-78
2022/12/30 05:40:22;;;;;;;1.15;0.77;;;;;;;2.62;100.00;99005.97;5109717;28;20047;-78
2022/12/30 05:42:49;;;;;;;1.45;0.90;;;;;;;2.67;100.00;99022.53;5111221;28;20070;-78
2022/12/30 05:45:15;;;;;;;1.50;0.90;;;;;;;2.47;100.00;99000.16;5104296;28;20055;-78
2022/12/30 05:47:42;;;;;;;1.98;0.95;;;;;;;2.45;100.00;99023.59;5109552;28;20075;-78
2022/12/30 05:50:09;;;;;;;2.05;1.00;;;;;;;2.31;100.00;99003.34;5110331;28;20051;-78
2022/12/30 05:52:37;;;;;;;1.50;0.80;;;;;;;2.56;100.00;99036.91;5111090;28;20051;-78
2022/12/30 05:55:04;;;;;;;2.15;0.90;;;;;;;2.52;100.00;99045.38;5108471;28;20054;-78
2022/12/30 05:57:30;;;;;;;4.20;1.00;;;;;;;2.29;100.00;99013.38;5104976;28;20502;-78
2022/12/30 05:59:57;;;;;;;2.15;0.70;;;;;;;2.44;100.00;99035.31;5091208;28;20075;-78
2022/12/30 06:02:23;;;;;;;2.15;0.85;;;;;;;2.31;100.00;99016.78;5101215;28;20482;-78
2022/12/30 06:04:50;;;;;;;8.98;1.20;;;;;;;2.33;100.00;99028.19;5109309;28;20047;-78
2022/12/30 06:07:17;;;;;;;1.67;1.10;;;;;;;2.46;100.00;99033.34;5101000;28;20268;-78
2022/12/30 06:09:44;;;;;;;1.25;0.90;;;;;;;2.36;100.00;99016.34;5109620;28;20048;-78
2022/12/30 06:12:11;;;;;;;3.20;1.15;;;;;;;2.52;100.00;99038.16;5101972;28;20102;-78
2022/12/30 06:14:37;;;;;;;2.28;1.10;;;;;;;2.53;100.00;99039.88;5101789;28;20043;-78
2022/12/30 06:17:04;;;;;;;4.25;1.20;;;;;;;2.30;100.00;99013.25;5110904;28;20483;-78
2022/12/30 06:19:31;;;;;;;0.95;0.82;;;;;;;2.37;100.00;99036.84;5103838;28;20055;-78
2022/12/30 06:21:57;;;;;;;1.27;0.90;;;;;;;2.17;100.00;99023.34;5103001;28;20503;-78
2022/12/30 06:24:24;;;;;;;3.70;0.80;;;;;;;2.10;100.00;99011.47;5107332;28;20410;-78
2022/12/30 06:26:52;;;;;;;3.85;0.82;;;;;;;2.02;100.00;99014.81;5110748;28;20130;-78
2022/12/30 06:29:18;;;;;;;1.20;0.82;;;;;;;2.02;100.00;99019.31;5107979;28;20052;-77
2022/12/30 06:31:45;;;;;;;3.58;1.40;;;;;;;2.02;100.00;99038.09;5109779;28;20040;-78
2022/12/30 06:34:11;;;;;;;1.83;0.85;;;;;;;2.00;100.00;99026.66;5110533;28;20051;-78
2022/12/30 06:36:38;;;;;;;1.30;1.02;;;;;;;2.08;100.00;99046.47;5108254;28;20058;-78
2022/12/30 06:39:04;;;;;;;1.08;0.93;;;;;;;1.92;100.00;99035.38;5111170;28;20091;-78
2022/12/30 06:41:31;;;;;;;0.98;0.93;;;;;;;1.91;100.00;99037.22;5109631;28;20048;-78
2022/12/30 06:43:59;;;;;;;2.35;0.90;;;;;;;1.98;100.00;99055.44;5101034;28;20059;-78
2022/12/30 06:46:25;;;;;;;0.65;0.65;;;;;;;1.76;100.00;99050.09;5109472;28;20048;-78
2022/12/30 06:48:52;;;;;;;2.63;0.82;;;;;;;1.64;100.00;99045.78;5109162;28;20082;-77
2022/12/30 06:51:18;;;;;;;1.48;1.13;;;;;;;1.61;100.00;99040.66;5104429;28;20051;-78
2022/12/30 06:53:45;;;;;;;1.08;0.65;;;;;;;1.53;100.00;99043.16;5107508;28;20043;-78
2022/12/30 06:56:11;;;;;;;2.33;0.90;;;;;;;1.41;100.00;99053.09;5108944;28;20059;-78
2022/12/30 06:58:38;;;;;;;1.60;1.20;;;;;;;1.45;100.00;99048.34;5107323;28;20040;-78
2022/12/30 07:01:06;;;;;;;5.28;1.40;;;;;;;1.30;100.00;99027.22;5109155;28;20039;-78
2022/12/30 07:03:32;;;;;;;4.10;1.20;;;;;;;1.47;100.00;99047.22;5107952;28;20043;-78
2022/12/30 07:05:59;;;;;;;1.48;1.20;;;;;;;1.33;100.00;99024.28;5104602;28;20059;-78
2022/12/30 07:08:25;;;;;;;1.00;0.90;;;;;;;1.31;100.00;99022.69;5098686;28;20052;-78
2022/12/30 07:10:54;;;;;;;0.85;0.80;;;;;;;1.30;100.00;99043.28;5105217;28;20415;-78
2022/12/30 07:13:20;;;;;;;1.23;0.95;;;;;;;1.32;100.00;99051.19;5096161;28;20051;-78
2022/12/30 07:15:47;;;;;;;1.35;1.00;;;;;;;1.30;100.00;99043.28;5106090;28;20122;-78
2022/12/30 07:18:15;;;;;;;1.50;0.95;;;;;;;1.21;100.00;99036.03;5110550;28;20047;-78
2022/12/30 07:20:43;;;;;;;1.10;1.00;;;;;;;1.11;100.00;99035.09;5105501;28;20048;-77
2022/12/30 07:23:10;;;;;;;0.90;0.90;;;;;;;1.21;100.00;99039.53;5109871;28;20048;-78
2022/12/30 07:25:37;;;;;;;1.30;0.98;;;;;;;1.23;100.00;99061.69;5104616;28;20179;-78
2022/12/30 07:28:05;;;;;;;0.63;0.52;;;;;;;1.16;100.00;99051.59;5110929;28;20129;-77
2022/12/30 07:30:33;;;;;;;2.42;0.93;;;;;;;1.21;100.00;99063.63;5098153;28;20056;-78
2022/12/30 07:32:59;;;;;;;1.98;1.08;;;;;;;1.13;100.00;99058.09;5109930;28;20490;-77
2022/12/30 07:35:27;;;;;;;2.10;1.20;;;;;;;1.20;100.00;99053.91;5107719;28;20459;-77
2022/12/30 07:37:54;;;;;;;4.22;1.35;;;;;;;1.13;100.00;99047.38;5110594;28;20051;-77
2022/12/30 07:40:20;;;;;;;1.80;1.48;;;;;;;1.03;100.00;99041.06;5105238;28;20051;-77
2022/12/30 07:42:47;;;;;;;2.50;1.52;;;;;;;1.04;100.00;99046.31;5108382;28;20058;-77
2022/12/30 07:45:13;;;;;;;2.70;1.27;;;;;;;1.11;100.00;99067.22;5102878;28;20380;-77
2022/12/30 07:47:42;;;;;;;4.40;1.13;;;;;;;1.15;100.00;99061.47;5102661;28;20047;-77
2022/12/30 07:50:10;;;;;;;2.08;1.30;;;;;;;0.92;100.00;99028.59;5107107;28;20134;-77
2022/12/30 07:52:38;;;;;;;2.97;1.95;;;;;;;0.85;100.00;99022.03;5112707;28;20071;-77
2022/12/30 07:55:05;;;;;;;3.63;1.70;;;;;;;1.01;100.00;99054.59;5105807;28;20173;-77
2022/12/30 07:57:31;;;;;;;4.88;1.42;;;;;;;1.08;100.00;99059.44;5111712;28;20052;-78
2022/12/30 07:59:58;;;;;;;3.60;1.42;;;;;;;0.96;100.00;99019.31;5108625;28;20050;-77
2022/12/30 08:02:24;;;;;;;1.73;1.40;;;;;;;1.10;100.00;99028.88;5109008;28;20486;-77
2022/12/30 08:04:51;;;;;;;2.60;1.75;;;;;;;1.20;100.00;99051.22;5112859;28;20751;-77
2022/12/30 08:07:18;;;;;;;2.75;1.50;;;;;;;1.28;100.00;99068.47;5113236;28;20048;-77
2022/12/30 08:09:46;;;;;;;3.90;1.30;;;;;;;1.17;100.00;99023.84;5110003;28;20039;-77
2022/12/30 08:12:13;;;;;;;1.67;1.30;;;;;;;1.35;100.00;99040.22;5112245;28;20055;-77
2022/12/30 08:14:39;;;;;;;3.05;2.00;;;;;;;1.36;100.00;99024.00;5113753;28;20054;-77
2022/12/30 08:17:06;;;;;;;4.78;1.80;;;;;;;1.50;100.00;99014.78;5106799;28;20058;-78
2022/12/30 08:19:33;;;;;;;1.95;1.08;;;;;;;1.55;100.00;99017.94;5105516;28;20056;-78
2022/12/30 08:21:59;;;;;;;1.90;1.20;;;;;;;1.74;100.00;99035.97;5107876;28;20040;-78
2022/12/30 08:24:26;;;;;;;2.47;1.27;;;;;;;1.75;100.00;99010.88;5104834;28;20479;-77
2022/12/30 08:26:54;;;;;;;1.70;1.15;;;;;;;1.94;100.00;99025.34;5109901;28;20054;-78
2022/12/30 08:29:20;;;;;;;1.00;0.90;;;;;;;2.15;100.00;99022.63;5113885;28;20048;-77
2022/12/30 08:31:49;;;;;;;2.75;1.20;;;;;;;2.34;100.00;99027.22;5113650;28;20062;-77
2022/12/30 08:34:16;;;;;;;1.67;1.20;;;;;;;2.25;100.00;99009.25;5118552;27;20044;-77
2022/12/30 08:36:43;;;;;;;2.03;1.40;;;;;;;2.28;100.00;98992.91;5105578;28;20509;-78
2022/12/30 08:39:09;;;;;;;1.95;1.45;;;;;;;2.57;100.00;99018.97;5113465;28;20055;-77
2022/12/30 08:41:40;;;;;;;1.52;1.08;;;;;;;2.56;100.00;99015.44;5110010;28;20059;-77
2022/12/30 08:44:08;;;;;;;1.90;1.70;;;;;;;2.46;100.00;98979.69;5112856;28;20048;-78
2022/12/30 08:46:36;;;;;;;1.95;1.40;;;;;;;2.67;100.00;99014.47;5113335;28;20047;-77
2022/12/30 08:49:04;;;;;;;1.95;1.50;;;;;;;2.63;100.00;98978.16;5110241;27;20052;-77
2022/12/30 08:51:31;;;;;;;4.80;1.40;;;;;;;2.92;100.00;99018.47;5112985;28;20051;-77
2022/12/30 08:53:58;;;;;;;4.10;1.52;;;;;;;2.85;100.00;98993.16;5094851;28;20449;-77
2022/12/30 08:56:27;;;;;;;1.00;0.85;;;;;;;3.13;100.00;98996.00;5094943;28;20080;-77
2022/12/30 08:58:54;;;;;;;2.90;0.82;;;;;;;3.11;100.00;98965.75;5094222;28;20044;-77
2022/12/30 09:01:24;;;;;;;2.00;1.42;;;;;;;3.38;100.00;98975.75;5094750;28;20056;-77
2022/12/30 09:03:51;;;;;;;2.40;1.17;;;;;;;3.40;100.00;98959.50;5091593;28;20097;-77
2022/12/30 09:06:21;;;;;;;5.13;1.40;;;;;;;3.48;100.00;98946.19;5111187;27;20047;-77
2022/12/30 09:08:48;;;;;;;2.30;1.30;;;;;;;3.71;100.00;98960.97;5116675;27;20047;-77
2022/12/30 09:11:17;;;;;;;3.28;1.90;;;;;;;3.71;100.00;98949.38;5112147;28;20051;-78
2022/12/30 09:13:44;;;;;;;6.00;3.10;;;;;;;3.78;100.00;98937.03;5111791;28;20051;-78
2022/12/30 09:16:13;;;;;;;2.70;1.05;;;;;;;3.93;100.00;98937.41;5112852;28;20056;-77
2022/12/30 09:18:41;;;;;;;1.70;1.00;;;;;;;4.14;100.00;98972.16;5114788;27;20047;-78
2022/12/30 09:21:08;;;;;;;1.65;1.00;;;;;;;3.99;100.00;98933.25;5122398;27;20039;-77
2022/12/30 09:23:35;;;;;;;2.83;1.00;;;;;;;4.27;100.00;98971.78;5115083;27;20047;-78
2022/12/30 09:26:01;;;;;;;1.35;1.10;;;;;;;4.23;100.00;98946.16;5111677;28;20058;-78
2022/12/30 09:28:28;;;;;;;2.10;1.00;;;;;;;4.37;100.00;98959.13;5113321;28;20048;-77
2022/12/30 09:30:54;;;;;;;6.35;1.35;;;;;;;4.37;100.00;98953.75;5132987;27;20055;-77
2022/12/30 09:33:21;;;;;;;2.45;1.20;;;;;;;4.43;100.00;98963.91;5132275;27;20073;-77
2022/12/30 09:35:49;;;;;;;1.45;0.80;;;;;;;4.45;100.00;98938.69;5104743;27;20048;-77
2022/12/30 09:38:15;;;;;;;1.55;0.90;;;;;;;4.56;100.00;98951.94;5098263;28;20048;-78
2022/12/30 09:40:51;;;;;;;1.90;1.10;;;;;;;4.67;100.00;98950.91;5110123;28;20054;-77
2022/12/30 09:43:27;;;;;;;1.63;0.98;;;;;;;4.66;100.00;98947.34;5108158;28;20048;-78
2022/12/30 09:46:08;;;;;;;1.30;0.90;;;;;;;4.64;100.00;98929.63;5091876;28;20399;-78
2022/12/30 09:48:40;;;;;;;5.10;1.48;;;;;;;4.83;100.00;98936.72;5091571;28;20044;-78
2022/12/30 09:51:14;;;;;;;2.38;1.27;;;;;;;4.77;100.00;98911.25;5091945;28;20048;-78
2022/12/30 09:53:45;;;;;;;1.52;0.93;;;;;;;4.76;100.00;98906.88;5108841;28;20062;-78
2022/12/30 09:56:16;;;;;;;3.83;1.35;;;;;;;4.97;100.00;98933.50;5110423;28;20047;-78
2022/12/30 09:58:45;;;;;;;2.63;1.00;;;;;;;4.87;100.00;98895.03;5111643;28;20339;-78
2022/12/30 10:01:23;;;;;;;3.03;1.10;;;;;;;4.92;100.00;98887.31;5100822;28;20404;-78
2022/12/30 10:03:52;;;;;;;2.15;1.20;;;;;;;4.99;100.00;98874.09;5093503;28;20056;-78
2022/12/30 10:06:26;;;;;;;1.95;1.33;;;;;;;5.07;100.00;98884.91;5099678;28;20092;-78
2022/12/30 10:09:15;;;;;;;1.02;0.90;;;;;;;5.08;100.00;98868.59;5103580;27;20297;-78
2022/12/30 10:11:54;;;;;;;2.35;1.27;;;;;;;5.10;100.00;98847.72;5109802;28;20536;-78
2022/12/30 10:14:28;;;;;;;3.40;1.17;;;;;;;5.15;100.00;98844.56;5095115;28;20050;-78
2022/12/30 10:17:05;;;;;;;2.70;1.50;;;;;;;5.45;100.00;98872.03;5103858;28;20055;-78
2022/12/30 10:19:43;;;;;;;1.38;0.95;;;;;;;5.42;100.00;98865.13;5102842;28;20078;-78
2022/12/30 10:22:22;;;;;;;0.93;0.90;;;;;;;5.26;100.00;98836.19;5102717;28;20541;-78
2022/12/30 10:25:04;;;;;;;2.30;1.30;;;;;;;5.36;100.00;98833.41;5108126;28;20069;-78
2022/12/30 10:27:41;;;;;;;5.40;1.58;;;;;;;5.44;100.00;98830.75;5105717;28;20597;-78
2022/12/30 10:30:14;;;;;;;1.60;1.20;;;;;;;5.50;100.00;98830.09;5098619;28;20311;-78
2022/12/30 10:32:47;;;;;;;1.58;1.10;;;;;;;5.65;100.00;98846.53;5095769;28;20063;-77
2022/12/30 10:35:18;;;;;;;2.95;1.30;;;;;;;5.51;100.00;98825.56;5108680;28;20051;-78
2022/12/30 10:37:46;;;;;;;1.83;1.20;;;;;;;5.52;100.00;98823.72;5101881;28;20506;-78
2022/12/30 10:40:15;;;;;;;2.45;1.33;;;;;;;5.56;100.00;98819.69;5106048;28;20043;-78
2022/12/30 10:43:12;;;;;;;1.20;1.00;;;;;;;5.80;100.00;98844.06;5105983;28;20051;-78
2022/12/30 10:46:05;;;;;;;2.45;1.60;;;;;;;5.79;100.00;98826.19;5104805;28;20040;-78
2022/12/30 10:48:44;;;;;;;4.00;1.63;;;;;;;5.99;100.00;98837.59;5098629;28;20052;-78
2022/12/30 10:51:15;;;;;;;8.75;2.25;;;;;;;5.94;100.00;98818.31;5105735;28;20063;-78
2022/12/30 10:53:45;;;;;;;3.08;1.40;;;;;;;5.95;100.00;98806.53;5108242;28;20054;-78
2022/12/30 10:56:19;;;;;;;3.25;1.67;;;;;;;6.08;100.00;98810.63;5108130;28;20418;-78
2022/12/30 10:58:47;;;;;;;4.00;1.63;;;;;;;6.19;100.00;98810.34;5104986;28;20059;-78
2022/12/30 11:01:18;;;;;;;2.70;1.60;;;;;;;6.35;100.00;98818.47;5107072;28;20096;-78
2022/12/30 11:03:48;;;;;;;6.53;1.60;;;;;;;6.31;100.00;98791.97;5102323;28;20194;-78
2022/12/30 11:06:22;;;;;;;1.48;0.80;;;;;;;6.40;100.00;98787.41;5102882;28;20051;-78
2022/12/30 11:08:51;;;;;;;3.00;1.00;;;;;;;6.36;100.00;98784.19;5104761;28;20123;-78
2022/12/30 11:11:18;;;;;;;1.25;0.68;;;;;;;6.47;100.00;98778.44;5104032;28;20067;-78
2022/12/30 11:16:40;;;;;;;2.30;0.98;;;;;;;6.56;100.00;98768.50;5109577;28;20055;-78
2022/12/30 11:19:15;;;;;;;2.15;1.05;;;;;;;6.61;100.00;98770.69;5100904;28;20050;-78
2022/12/30 11:21:42;;;;;;;0.95;0.70;;;;;;;6.61;100.00;98774.25;5107347;28;20130;-78
2022/12/30 11:24:16;;;;;;;2.58;0.68;;;;;;;6.80;100.00;98786.56;5110220;27;20058;-78
2022/12/30 11:26:47;;;;;;;3.40;0.93;;;;;;;6.82;100.00;98789.09;5111976;28;20559;-78
2022/12/30 11:29:17;;;;;;;1.10;0.50;;;;;;;6.87;100.00;98779.47;5106643;28;20059;-78
2022/12/30 11:31:49;;;;;;;1.77;0.65;;;;;;;7.00;100.00;98788.91;5110138;28;20505;-78
2022/12/30 11:34:21;;;;;;;1.25;0.98;;;;;;;6.91;100.00;98772.72;5109975;28;20407;-78
2022/12/30 11:36:48;;;;;;;1.30;0.88;;;;;;;6.94;100.00;98770.66;5108417;28;20044;-79
2022/12/30 11:39:33;;;;;;;2.85;0.90;;;;;;;7.04;100.00;98785.69;5100206;28;20059;-79
2022/12/30 11:42:02;;;;;;;3.03;0.68;;;;;;;7.18;100.00;98797.69;5103272;28;20039;-78
2022/12/30 11:44:31;;;;;;;2.28;1.00;;;;;;;7.22;100.00;98785.47;5109030;28;20048;-79
2022/12/30 11:47:00;;;;;;;0.97;0.83;;;;;;;7.17;100.00;98757.31;5102762;28;20043;-78
2022/12/30 11:49:34;;;;;;;0.85;0.70;;;;;;;7.18;100.00;98757.13;5097608;28;20054;-78
2022/12/30 11:52:09;;;;;;;1.25;0.70;;;;;;;7.42;100.00;98772.44;5104477;28;20047;-79
2022/12/30 11:54:43;;;;;;;0.85;0.82;;;;;;;7.36;100.00;98743.38;5106717;28;20126;-79
2022/12/30 11:57:20;;;;;;;0.73;0.65;;;;;;;7.49;100.00;98760.91;5104127;28;20666;-79
2022/12/30 11:59:48;;;;;;;1.85;0.77;;;;;;;7.42;100.00;98742.69;5110599;28;20059;-79
2022/12/30 12:02:21;;;;;;;3.53;1.10;;;;;;;7.52;100.00;98750.56;5096075;28;20050;-79
2022/12/30 12:04:48;;;;;;;2.28;0.80;;;;;;;7.58;100.00;98749.03;5107189;28;20048;-78
2022/12/30 12:07:26;;;;;;;1.73;0.90;;;;;;;7.48;100.00;98715.94;5109199;28;20051;-79
2022/12/30 12:10:00;;;;;;;3.70;1.58;;;;;;;7.57;100.00;98709.47;5104261;28;20052;-79
2022/12/30 12:12:33;;;;;;;8.23;4.55;;;;;;;7.68;100.00;98719.91;5108350;28;20047;-78
2022/12/30 12:15:06;;;;;;;2.10;1.00;;;;;;;7.73;100.00;98716.66;5091858;28;20044;-78
2022/12/30 12:17:43;;;;;;;6.82;2.53;;;;;;;7.65;100.00;98692.34;5103163;28;20074;-78
2022/12/30 12:20:20;;;;;;;3.40;1.00;;;;;;;7.63;100.00;98689.81;5110239;28;20191;-78
2022/12/30 12:22:59;;;;;;;1.88;1.48;;;;;;;7.73;100.00;98719.38;5100340;28;20054;-78
2022/12/30 12:25:33;;;;;;;1.15;0.85;;;;;;;7.77;100.00;98718.00;5106888;28;20430;-78
2022/12/30 12:28:00;;;;;;;1.00;0.90;;;;;;;7.78;100.00;98720.53;5097687;28;20062;-78
2022/12/30 12:30:42;;;;;;;1.90;1.30;;;;;;;7.59;100.00;98686.63;5110730;28;20058;-78
2022/12/30 12:33:19;;;;;;;0.98;0.63;;;;;;;7.64;100.00;98705.03;5102507;28;20062;-78
2022/12/30 12:35:55;;;;;;;2.17;1.10;;;;;;;7.64;100.00;98701.50;5106692;27;20051;-78